Terminal Aerodrome Forecast
Issued by NWS

Home | Current Version | Previous Version | Text Only | Print | Product List | Glossary On
Versions: 1 2 3 4 5 6 7 8 9 10 11 12 13 14 15 16 17 18 19 20 21 22 23 24 25 26 27 28 29 30 31 32 33
901
FTUS43 KLOT 291735
TAFORD
TAF
KORD 291735Z 2918/3024 03010KT P6SM BKN016 OVC025
     FM292200 05010KT P6SM SCT025
     FM300900 08012KT P6SM SCT025 BKN180
     FM301400 08013G18KT P6SM VCSH BKN035
     FM301800 07015KT P6SM -RA OVC030=

USA.gov is the U.S. government's official web portal to all federal, state and local government web resources and services.